Bango, Nevada Weather observations

Data are for 10 minute period ending at time listed.
 Day   Time    Ave.   Ave.  Ave.  Vector   Max.   Stn.    Total    Solar   Ave.  
  of    of     Air    Rel.  Wind   Wind    Wind   Baro.  Precip.   Rad.    Soil  
Year   Day     Temp.  Hum.  Speed  Dir.    Gust   Pres.                    Temp. 
2016   (PST)    F      %     mph   deg.    mph     mb.     in.     W/m2     F    
--------------------------------------------------------------------------------- 
 342   23:30   26.0    97    7.4    12     10.5   877.6    0.00       0     4.4  
 342   23:40   25.8    97    7.8    17     10.5   877.6    0.00       0     4.4  
 342   23:50   25.4    97    6.4    26      8.7   877.5    0.00       0     4.3  
 343    0:00   25.3    97    6.8    24      9.6   877.3    0.00       0     4.3  
 343    0:10   25.2    97    7.3    21      9.6   877.1    0.00       0     4.3  
 343    0:20   25.1    97    6.8    19      8.7   877.0    0.00       0     4.3  
 343    0:30   25.2    97    6.6    16      8.7   877.1    0.00       0     4.2  
 343    0:40   25.2    97    5.5    19      7.8   877.0    0.00       0     4.2  
 343    0:50   25.2    97    5.2    15      6.9   876.9    0.00       0     4.2  
 343    1:00   25.2    97    4.2    15      6.0   876.8    0.00       0     4.2  
 343    1:10   25.3    97    4.0     3      5.1   877.0    0.00       0     4.1  
 343    1:20   25.4    97    4.3   348      6.0   877.1    0.00       0     4.1  
 343    1:30   25.4    97    5.0     3      6.9   877.1    0.00       0     4.1  
 343    1:40   25.4    97    4.9     4      6.9   877.0    0.00       0     4.1  
 343    1:50   25.4    97    5.3    16      6.9   877.0    0.00       0     4.1  
 343    2:00   25.4    97    5.3    10      6.9   877.1    0.00       0     4.0  
 343    2:10   25.5    97    4.3    15      6.9   877.1    0.00       0     4.0  
 343    2:20   25.5    97    4.4    21      6.9   877.0    0.00       0     4.0  
 343    2:30   25.5    97    2.9    41      4.2   877.1    0.00       0     4.0  
 343    2:40   25.6    97    3.9    52      6.0   877.0    0.00       0     4.0  
 343    2:50   25.6    97    3.7    46      5.1   877.0    0.00       0     4.0  
 343    3:00   25.6    97    2.9    48      4.2   876.9    0.00       0     3.9  
 343    3:10   25.6    97    1.8    41      3.3   876.7    0.00       0     3.9  
 343    3:20   25.6    97    3.6    58      5.1   876.4    0.00       0     3.9  
 343    3:30   25.5    97    3.6    59      5.1   876.4    0.00       0     3.9  
 343    3:40   25.5    97    2.9    69      4.2   876.4    0.00       0     3.9  
 343    3:50   25.5    97    2.6    81      4.2   876.3    0.00       0     3.9  
 343    4:00   25.5    97    2.3    66      3.3   876.4    0.00       0     3.8  
 343    4:10   25.5    97    3.1    35      4.2   876.4    0.00       0     3.8  
 343    4:20   25.5    98    2.3    62      4.2   876.2    0.00       0     3.8  
 343    4:30   25.5    98    1.6    77      3.3   876.2    0.00       0     3.8  
 343    4:40   25.5    98    1.5    95      2.4   876.1    0.00       0     3.8  
 343    4:50   25.5    98    0.7   268      1.5   876.2    0.00       0     3.8  
 343    5:00   25.6    98    1.6   201      3.3   876.1    0.00       0     3.7  
 343    5:10   25.5    98    1.2    95      2.4   876.0    0.00       0     3.7  
 343    5:20   25.5    98    2.0   104      5.1   876.1    0.00       0     3.7  
 343    5:30   25.4    98    2.2    70      4.2   876.0    0.00       0     3.7  
 343    5:40   25.5    98    1.7   179      4.2   876.2    0.00       0     3.7  
 343    5:50   25.5    98    2.2   132      4.2   876.3    0.00       0     3.7  
 343    6:00   25.5    98    2.0   164      3.3   876.3    0.00       0     3.6  
 343    6:10   25.5    98    1.9   184      4.2   876.3    0.00       0     3.6  
 343    6:20   25.5    97    0.8   208      2.4   876.3    0.00       0     3.6  
 343    6:30   25.4    97    1.3   170      2.4   876.2    0.00       0     3.6  
 343    6:40   25.4    97    0.8   211      3.3   876.4    0.00       0     3.6  
 343    6:50   25.4    97    0.7   170      1.5   876.3    0.00       0     3.6  
 343    7:00   25.5    98    2.3    97      4.2   876.2    0.00       3     3.6  
 343    7:10   25.5    98    1.4   115      3.3   876.3    0.00       5     3.6  
 343    7:20   25.6    98    0.7    69      1.5   876.4    0.00      13     3.5  
 343    7:30   25.7    97    1.1   156      2.4   876.4    0.00      21     3.5  
 343    7:40   25.8    97    1.8   137      2.4   876.3    0.00      28     3.5  
 343    7:50   25.7    97    2.5    95      3.3   876.1    0.00      42     3.5  
 343    8:00   25.4    97    2.8   102      4.2   876.1    0.00      52     3.5  
 343    8:10   25.9    97    1.0   134      2.4   876.3    0.00      66     3.5  
 343    8:20   25.6    96    2.5   163      3.3   876.3    0.00      77     3.5  
 343    8:30   25.8    96    2.4   146      3.3   876.4    0.00      82     3.5  
 343    8:40   26.2    96    2.8   154      4.2   876.3    0.00      92     3.4  
 343    8:50   26.5    96    2.9   164      4.2   876.4    0.00     112     3.4  
 343    9:00   26.8    95    3.1   158      5.1   876.4    0.00     118     3.4  
 343    9:10   27.0    94    3.7   168      5.1   876.4    0.00     137     3.4  
 343    9:20   27.3    94    4.4   144      6.0   876.3    0.00     170     3.4  
 343    9:30   28.1    92    4.0   121      6.9   876.3    0.00     251     3.4  
 343    9:40   28.8    90    3.0   111      5.1   876.4    0.00     231     3.4  
 343    9:50   30.1    87    3.2    98      4.2   876.5    0.00     239     3.4  
 343   10:00   30.1    86    2.4   108      3.3   876.5    0.01     237     3.4  
 343   10:10   30.0    85    2.1   126      4.2   876.4    0.00     225     3.4  
 343   10:20   29.9    86    3.3   110      5.1   876.4    0.00     190     3.3  
 343   10:30   30.0    85    3.4   113      5.1   876.3    0.00     237     3.3  
 343   10:40   30.1    84    2.7   135      4.2   876.2    0.00     236     3.4  
 343   10:50   30.4    84    3.2   133      5.1   876.1    0.00     399     3.4  
 343   11:00   33.2    79    3.4    97      5.1   875.8    0.02     643     3.4  
 343   11:10   34.9    74    2.3   137      4.2   875.8    0.03     635     3.4  
 343   11:20   35.4    72    2.7   150      5.1   875.6    0.00     611     3.4  
 343   11:30   34.6    74    1.6   129      3.3   875.6    0.00     368     3.4  
 343   11:40   35.3    73    2.8   179      5.1   875.5    0.00     490     3.4  
 343   11:50   35.6    74    2.8   156      4.2   875.4    0.00     567     3.4  
 343   12:00   36.2    72    3.0   125      5.1   875.4    0.00     488     3.4  
 343   12:10   37.0    71    3.0   120      6.0   875.2    0.00     651     3.5  
 343   12:20   38.4    67    3.4   110      6.0   875.1    0.00     653     3.5  
 343   12:30   38.8    66    3.4    95      6.0   874.8    0.00     568     3.5  
 343   12:40   39.6    66    3.1   134      5.1   874.9    0.00     494     3.6  
 343   12:50   39.2    66    4.2   107      6.0   874.7    0.00     431     3.6  
 343   13:00   38.8    70    5.0    59      7.8   874.7    0.00     509     3.7  
 343   13:10   39.2    69    4.2    54      6.0   874.8    0.00     521     3.8  
 343   13:20   38.9    70    5.9    53      8.7   874.8    0.00     552     3.9  
 343   13:30   39.5    69    5.2    75      7.8   874.7    0.00     517     4.1  
 343   13:40   39.7    68    5.5    65      8.7   874.5    0.00     430     4.2  
 343   13:50   38.5    71    5.8    58      9.6   874.5    0.00     205     4.3  
 343   14:00   38.5    72    6.3    50      7.8   874.5    0.00     338     4.4  
 343   14:10   39.3    69    6.1    44      8.7   874.5    0.00     394     4.5  
 343   14:20   39.5    69    5.7    62      7.8   874.5    0.00     265     4.7  
 343   14:30   39.3    70    5.6    56      7.8   874.4    0.00     256     4.8  
 343   14:40   39.7    69    6.6    51      9.6   874.6    0.00     241     4.9  
 343   14:50   39.9    69    5.3    58      7.8   874.5    0.00     283     5.1  
 343   15:00   40.5    68    5.3    57      7.8   874.6    0.00     224     5.2  
 343   15:10   40.7    67    5.2    50      7.8   874.6    0.00     217     5.3  
 343   15:20   40.0    68    5.2    56      7.8   874.6    0.00     150     5.4  
 343   15:30   40.6    67    5.3    52      8.7   874.5    0.00     200     5.5  
 343   15:40   40.0    69    4.6    50      7.8   874.6    0.00      67     5.6  
 343   15:50   39.2    71    4.3    36      6.9   874.7    0.00      65     5.7  
 343   16:00   39.3    71    3.8    52      6.0   874.8    0.00      76     5.8  
 343   16:10   38.9    71    5.9    31      7.8   874.9    0.00      43     5.9  
 343   16:20   37.8    74    6.0    38      8.7   874.9    0.00      14     6.0  
 343   16:30   37.1    76    5.7    18      7.8   875.0    0.00       5     6.0  
 343   16:40   36.5    79    3.7    37      7.8   875.1    0.00       2     6.1  
 343   16:50   36.0    80    6.1    21      8.7   875.1    0.00       0     6.2  
 343   17:00   35.6    82    4.8    14      6.9   875.3    0.00       0     6.2  
 343   17:10   34.9    83    5.6    27      7.8   875.4    0.00       0     6.2  
 343   17:20   34.2    85    6.3    18      8.7   875.5    0.00       0     6.3  
 343   17:30   33.7    86    5.5    24      7.8   875.6    0.00       0     6.3  
 343   17:40   33.4    86    4.3    11      6.0   875.6    0.00       0     6.3  
 343   17:50   33.1    87    3.0    11      5.1   875.6    0.00       0     6.3  
 343   18:00   32.9    88    2.8   308      4.2   875.6    0.00       0     6.3  
 343   18:10   32.9    88    3.2   253      6.0   875.6    0.00       0     6.3  
 343   18:20   32.6    89    3.2   237      6.0   875.9    0.00       0     6.3  
 343   18:30   32.3    89    1.5   222      3.3   875.9    0.00       0     6.2  
 343   18:40   32.2    91    4.3   143      6.0   876.0    0.00       0     6.2  
 343   18:50   32.4    89    4.0   187      6.0   876.1    0.00       0     6.2  
 343   19:00   32.3    89    3.0   148      4.2   876.1    0.00       0     6.2  
 343   19:10   31.5    90    4.0   235      6.0   876.1    0.00       0     6.1  
 343   19:20   31.3    91    3.3   242      5.1   876.2    0.00       0     6.1  
 343   19:30   31.6    91    2.5   296      4.2   876.3    0.00       0     6.1  
 343   19:40   30.9    92    3.3   317      6.9   876.4    0.00       0     6.0  
 343   19:50   30.2    94    5.9   352      7.8   876.5    0.00       0     6.0  
 343   20:00   30.7    94    4.1    51      6.0   876.5    0.00       0     5.9  
 343   20:10   30.6    94    2.7   168      5.1   876.6    0.00       0     5.9  
 343   20:20   30.4    94    6.1   210      7.8   876.5    0.00       0     5.8  
 343   20:30   30.2    94    5.7   191      7.8   876.7    0.00       0     5.8  
 343   20:40   30.2    94    3.7   228      6.0   876.9    0.00       0     5.8  
 343   20:50   30.3    93    5.5   199      7.8   876.8    0.00       0     5.7  
 343   21:00   30.3    93    4.3   210      8.7   876.9    0.00       0     5.7  
 343   21:10   29.9    93    2.5   235      4.2   877.1    0.00       0     5.6  
 343   21:20   29.2    94    5.3   339      8.7   877.2    0.00       0     5.6  
 343   21:30   29.4    95    5.7   334      9.6   877.1    0.00       0     5.5  
 343   21:40   29.7    94    3.1    65      5.1   877.3    0.00       0     5.5  
 343   21:50   29.4    94    1.9   222      6.0   877.4    0.00       0     5.4  
 343   22:00   29.0    94    2.8   180      7.8   877.4    0.00       0     5.4  
 343   22:10   29.4    94    4.2   237      7.8   877.6    0.00       0     5.3  
 343   22:20   29.6    94    3.5   210      5.1   877.6    0.00       0     5.3  
 343   22:30   30.2    92    2.7   211      5.1   877.6    0.00       0     5.2  
 343   22:40   29.8    93    2.9   279      5.1   877.7    0.00       0     5.2  
 343   22:50   29.4    93    7.2    11     10.5   877.7    0.00       0     5.1  
 343   23:00   28.9    94    5.5    32      8.7   877.8    0.00       0     5.0  
 343   23:10   28.5    94    3.8    27      5.1   877.7    0.00       0     5.0  
 343   23:20   28.2    94    3.6   327      5.1   877.7    0.00       0     5.0  

Return to Garden Spring, Nevada graphs page.


Western Regional Climate Center,wrcc@dri.edu